Azucena, Louisiana
Current Conditions -  °F | °C
As of 5:35 AM on Friday 24 Oct 2014 (Local Time) from KHEZ Reporting Station
Overcast Overcast  
Wind Chill: 46°   Ceiling: 200
Heat Index: 46°   Visibility: 0.25mi
Dew Point: 43°   Wind: 3mph
Humidity: 87%   Direction: 10°N
Pressure: 30.13"   Gusts: NA
Location:  31.835°N, 91.3655°W
Report Text: KHEZ 241035Z AUTO 01003KT 1/4SM OVC002 08/06 A3013 RMK AO1
Loading
Personal Weather Stations






























Interactive Weather Map New forecast layout! Learn more

10-Day Weather Forecast

Advertisements
Track Severe Weather on mobile